Costa Pacifica — ICJA — position and weather

sailwx.info

Track history (hours):
 
Tides and Currents Weather Stations Pressure Air Temp Water Temp Dewpoint Dewpoint Depression Visibility Wind Speed Wind Dir Waves Ship Positions

Costa Pacifica

Last reported at 2020-Jan-25 03:15 UTC. Time now 2020-Jan-25 05:37 UTC.
Position S 23°25' W 043°30'.

Length 290 m; draft 8.3 m.

Type: Ship. MMSI: 247258100.

Date/timePositionNaut miles runAvg speedWind from/ knotsBaromVisibWave heightAir tempDewpointWater temp
2020-Jan-25 03:15S 23°25' W 043°30'4118.1
2020-Jan-25 00:58S 23°16' W 042°46'918.6
2020-Jan-25 00:30S 23°14' W 042°37'11 0.5
2020-Jan-24 03:28S 23°17' W 042°25'1212.2
2020-Jan-24 02:30S 23°15' W 042°38'2612.8
2020-Jan-24 00:30S 23°02' W 043°02'1111.0
2020-Jan-23 23:30S 22°54' W 043°09'2 1.1
2020-Jan-23 21:58S 22°54' W 043°11'0 0.0
2020-Jan-23 16:29S 22°54' W 043°11'0 0.0
2020-Jan-23 15:29S 22°54' W 043°11'0 0.0
2020-Jan-23 13:58S 22°54' W 043°11'0 0.0
2020-Jan-23 12:30S 22°54' W 043°11'14 9.6
2020-Jan-23 11:01S 23°08' W 043°12'2121.0
2020-Jan-23 10:00S 23°25' W 043°26'92720.6
2020-Jan-21 13:00S 35°04' W 055°03'4417.7
2020-Jan-21 10:30S 35°05' W 055°57'3913.1
2020-Jan-21 07:30S 35°10' W 056°45'714.3
2020-Jan-21 07:01S 35°10' W 056°53'29 9.6
2020-Jan-21 03:58S 34°52' W 057°21'7 4.9
2020-Jan-21 02:38S 34°48' W 057°28'46 7.6
2020-Jan-20 20:32S 34°35' W 058°22'0 0.0
2020-Jan-20 18:25S 34°35' W 058°22'0 0.0
2020-Jan-20 14:54S 34°35' W 058°22'0 0.0
2020-Jan-20 10:36S 34°35' W 058°22'5 4.1
2020-Jan-20 09:27S 34°36' W 058°16'510.3
2020-Jan-20 08:59S 34°37' W 058°11'2310.5
2020-Jan-20 06:48S 34°44' W 057°44'13 9.1
2020-Jan-20 05:25S 34°47' W 057°29'4 9.4
2020-Jan-20 05:00S 34°50' W 057°25'15 9.9
2020-Jan-20 03:30S 35°00' W 057°12'1414.4
2020-Jan-20 02:30S 35°10' W 056°59'1414.5
2020-Jan-20 01:31S 35°10' W 056°42'714.7
2020-Jan-20 01:00S 35°10' W 056°33'2114.2
2020-Jan-19 23:31S 35°07' W 056°07'14 5.6
2020-Jan-19 21:00S 34°54' W 056°13'0 0.0
2020-Jan-19 18:59S 34°54' W 056°13'0 0.0
2020-Jan-19 18:29S 34°54' W 056°13'0 0.0
2020-Jan-19 16:30S 34°54' W 056°13'8815.9
2020-Jan-19 10:57S 35°01' W 054°25'920.8
2020-Jan-19 10:31S 34°57' W 054°15'  
2020-Jan-16 03:52S 23°39' W 043°28'1611.6
2020-Jan-16 02:27S 23°24' W 043°20'3010.4
2020-Jan-15 23:30S 22°55' W 043°09'3 2.9
2020-Jan-15 22:28S 22°54' W 043°11'0 0.0
2020-Jan-15 20:00S 22°54' W 043°11'0 0.0
2020-Jan-15 19:24S 22°54' W 043°11'0 0.0
2020-Jan-15 17:59S 22°54' W 043°11'0 0.0
2020-Jan-15 14:01S 22°54' W 043°11'011.1
2020-Jan-15 14:00S 22°54' W 043°11'0 0.0
2020-Jan-15 12:30S 22°54' W 043°11'2 1.9
2020-Jan-15 11:30S 22°54' W 043°09'3215.8
2020-Jan-15 09:30S 23°22' W 043°25'2220.6
2020-Jan-15 08:26S 23°40' W 043°39'  
Track history (hours):
 
Tides and Currents Weather Stations Pressure Air Temp Water Temp Dewpoint Dewpoint Depression Visibility Wind Speed Wind Dir Waves Ship Positions

Costa Pacifica

Last reported at 2020-Jan-25 03:15 UTC. Time now 2020-Jan-25 05:37 UTC.
Position S 23°25' W 043°30'.

Length 290 m; draft 8.3 m.

Type: Ship. MMSI: 247258100.

Date/timePositionNaut miles runAvg speedWind from/ knotsBaromVisibWave heightAir tempDewpointWater temp
2020-Jan-25 03:15S 23°25' W 043°30'4118.1
2020-Jan-25 00:58S 23°16' W 042°46'918.6
2020-Jan-25 00:30S 23°14' W 042°37'11 0.5
2020-Jan-24 03:28S 23°17' W 042°25'1212.2
2020-Jan-24 02:30S 23°15' W 042°38'2612.8
2020-Jan-24 00:30S 23°02' W 043°02'1111.0
2020-Jan-23 23:30S 22°54' W 043°09'2 1.1
2020-Jan-23 21:58S 22°54' W 043°11'0 0.0
2020-Jan-23 16:29S 22°54' W 043°11'0 0.0
2020-Jan-23 15:29S 22°54' W 043°11'0 0.0
2020-Jan-23 13:58S 22°54' W 043°11'0 0.0
2020-Jan-23 12:30S 22°54' W 043°11'14 9.6
2020-Jan-23 11:01S 23°08' W 043°12'2121.0
2020-Jan-23 10:00S 23°25' W 043°26'92720.6
2020-Jan-21 13:00S 35°04' W 055°03'4417.7
2020-Jan-21 10:30S 35°05' W 055°57'3913.1
2020-Jan-21 07:30S 35°10' W 056°45'714.3
2020-Jan-21 07:01S 35°10' W 056°53'29 9.6
2020-Jan-21 03:58S 34°52' W 057°21'7 4.9
2020-Jan-21 02:38S 34°48' W 057°28'46 7.6
2020-Jan-20 20:32S 34°35' W 058°22'0 0.0
2020-Jan-20 18:25S 34°35' W 058°22'0 0.0
2020-Jan-20 14:54S 34°35' W 058°22'0 0.0
2020-Jan-20 10:36S 34°35' W 058°22'5 4.1
2020-Jan-20 09:27S 34°36' W 058°16'510.3
2020-Jan-20 08:59S 34°37' W 058°11'2310.5
2020-Jan-20 06:48S 34°44' W 057°44'13 9.1
2020-Jan-20 05:25S 34°47' W 057°29'4 9.4
2020-Jan-20 05:00S 34°50' W 057°25'15 9.9
2020-Jan-20 03:30S 35°00' W 057°12'1414.4
2020-Jan-20 02:30S 35°10' W 056°59'1414.5
2020-Jan-20 01:31S 35°10' W 056°42'714.7
2020-Jan-20 01:00S 35°10' W 056°33'2114.2
2020-Jan-19 23:31S 35°07' W 056°07'14 5.6
2020-Jan-19 21:00S 34°54' W 056°13'0 0.0
2020-Jan-19 18:59S 34°54' W 056°13'0 0.0
2020-Jan-19 18:29S 34°54' W 056°13'0 0.0
2020-Jan-19 16:30S 34°54' W 056°13'8815.9
2020-Jan-19 10:57S 35°01' W 054°25'920.8
2020-Jan-19 10:31S 34°57' W 054°15'  
2020-Jan-16 03:52S 23°39' W 043°28'1611.6
2020-Jan-16 02:27S 23°24' W 043°20'3010.4
2020-Jan-15 23:30S 22°55' W 043°09'3 2.9
2020-Jan-15 22:28S 22°54' W 043°11'0 0.0
2020-Jan-15 20:00S 22°54' W 043°11'0 0.0
2020-Jan-15 19:24S 22°54' W 043°11'0 0.0
2020-Jan-15 17:59S 22°54' W 043°11'0 0.0
2020-Jan-15 14:01S 22°54' W 043°11'011.1
2020-Jan-15 14:00S 22°54' W 043°11'0 0.0
2020-Jan-15 12:30S 22°54' W 043°11'2 1.9
2020-Jan-15 11:30S 22°54' W 043°09'3215.8
2020-Jan-15 09:30S 23°22' W 043°25'2220.6
2020-Jan-15 08:26S 23°40' W 043°39'  

Dump ship's entire track history